sensor_id;sensor_type;location;lat;lon;timestamp;pressure;altitude;pressure_sealevel;temperature;humidity
61357;BME280;47227;46.752;23.576;2023-05-09T02:59:33;97031.98;;;6.85;68.23
61357;BME280;47227;46.752;23.576;2023-05-09T03:06:47;97042.23;;;6.96;68.54
61357;BME280;47227;46.752;23.576;2023-05-09T03:09:37;97040.94;;;7.03;68.51
61357;BME280;47227;46.752;23.576;2023-05-09T03:12:09;97044.44;;;7.10;68.18
61357;BME280;47227;46.752;23.576;2023-05-09T03:14:55;97046.83;;;7.19;68.25
61357;BME280;47227;46.752;23.576;2023-05-09T03:17:26;97050.38;;;7.26;68.23
61357;BME280;47227;46.752;23.576;2023-05-09T03:20:42;97047.21;;;7.31;68.19
61357;BME280;47227;46.752;23.576;2023-05-09T03:23:52;97047.84;;;7.34;67.92
61357;BME280;47227;46.752;23.576;2023-05-09T03:27:03;97049.32;;;7.38;67.66
61357;BME280;47227;46.752;23.576;2023-05-09T03:29:52;97053.05;;;7.37;67.63
61357;BME280;47227;46.752;23.576;2023-05-09T03:35:07;97057.98;;;7.30;67.16
61357;BME280;47227;46.752;23.576;2023-05-09T03:37:44;97059.17;;;7.25;67.03
61357;BME280;47227;46.752;23.576;2023-05-09T03:40:38;97059.39;;;7.20;67.21
61357;BME280;47227;46.752;23.576;2023-05-09T03:43:40;97062.89;;;7.15;67.32
61357;BME280;47227;46.752;23.576;2023-05-09T03:46:48;97064.06;;;7.11;67.18
61357;BME280;47227;46.752;23.576;2023-05-09T03:49:22;97064.46;;;7.07;67.34
61357;BME280;47227;46.752;23.576;2023-05-09T03:52:17;97070.02;;;7.08;67.42
61357;BME280;47227;46.752;23.576;2023-05-09T03:55:06;97067.35;;;7.07;67.51
61357;BME280;47227;46.752;23.576;2023-05-09T03:57:39;97075.84;;;7.08;67.40
61357;BME280;47227;46.752;23.576;2023-05-09T04:00:29;97080.67;;;7.11;67.55
61357;BME280;47227;46.752;23.576;2023-05-09T04:03:23;97079.63;;;7.14;67.41
61357;BME280;47227;46.752;23.576;2023-05-09T04:06:17;97085.61;;;7.15;67.53
61357;BME280;47227;46.752;23.576;2023-05-09T04:08:46;97083.96;;;7.15;67.21
61357;BME280;47227;46.752;23.576;2023-05-09T04:12:01;97083.30;;;7.16;67.43
61357;BME280;47227;46.752;23.576;2023-05-09T04:14:49;97089.18;;;7.14;67.50
61357;BME280;47227;46.752;23.576;2023-05-09T04:17:26;97088.42;;;7.09;67.28
61357;BME280;47227;46.752;23.576;2023-05-09T04:20:40;97090.32;;;7.07;67.73
61357;BME280;47227;46.752;23.576;2023-05-09T04:23:48;97090.48;;;7.05;67.38
61357;BME280;47227;46.752;23.576;2023-05-09T04:26:44;97089.52;;;7.06;67.48
61357;BME280;47227;46.752;23.576;2023-05-09T04:30:11;97093.05;;;7.06;67.73
61357;BME280;47227;46.752;23.576;2023-05-09T04:33:00;97097.69;;;7.13;67.91
61357;BME280;47227;46.752;23.576;2023-05-09T04:36:03;97095.02;;;7.22;67.80
61357;BME280;47227;46.752;23.576;2023-05-09T04:38:53;97096.19;;;7.35;67.73
61357;BME280;47227;46.752;23.576;2023-05-09T04:41:47;97096.46;;;7.48;67.70
61357;BME280;47227;46.752;23.576;2023-05-09T04:45:16;97095.41;;;7.58;67.30
61357;BME280;47227;46.752;23.576;2023-05-09T04:48:44;97099.21;;;7.69;66.76
61357;BME280;47227;46.752;23.576;2023-05-09T04:51:28;97096.68;;;7.78;66.72
61357;BME280;47227;46.752;23.576;2023-05-09T05:08:03;97099.36;;;8.35;65.54
61357;BME280;47227;46.752;23.576;2023-05-09T06:23:38;97091.23;;;10.34;57.43
61357;BME280;47227;46.752;23.576;2023-05-09T06:26:24;97094.61;;;10.48;58.04
61357;BME280;47227;46.752;23.576;2023-05-09T06:28:54;97092.11;;;10.62;57.84
61357;BME280;47227;46.752;23.576;2023-05-09T06:31:28;97095.62;;;10.75;57.24
61357;BME280;47227;46.752;23.576;2023-05-09T06:33:56;97093.05;;;10.84;57.16
61357;BME280;47227;46.752;23.576;2023-05-09T06:36:36;97093.00;;;10.94;57.06
61357;BME280;47227;46.752;23.576;2023-05-09T06:39:34;97092.38;;;11.02;56.01
61357;BME280;47227;46.752;23.576;2023-05-09T06:42:28;97088.85;;;11.14;55.70
61357;BME280;47227;46.752;23.576;2023-05-09T06:45:06;97093.30;;;11.18;54.44
61357;BME280;47227;46.752;23.576;2023-05-09T06:55:05;97086.33;;;11.13;52.14
61357;BME280;47227;46.752;23.576;2023-05-09T06:58:23;97081.81;;;11.16;53.32
61357;BME280;47227;46.752;23.576;2023-05-09T07:01:45;97081.14;;;11.27;52.30
61357;BME280;47227;46.752;23.576;2023-05-09T07:04:42;97078.71;;;11.20;51.43
61357;BME280;47227;46.752;23.576;2023-05-09T07:08:08;97083.43;;;11.41;52.91
61357;BME280;47227;46.752;23.576;2023-05-09T07:11:00;97078.87;;;11.55;52.74
61357;BME280;47227;46.752;23.576;2023-05-09T07:14:09;97078.48;;;11.71;52.11
61357;BME280;47227;46.752;23.576;2023-05-09T07:17:00;97076.05;;;11.83;52.06
61357;BME280;47227;46.752;23.576;2023-05-09T07:20:11;97068.29;;;11.95;51.84
61357;BME280;47227;46.752;23.576;2023-05-09T07:23:20;97062.39;;;12.10;50.74
61357;BME280;47227;46.752;23.576;2023-05-09T07:26:47;97066.98;;;12.11;50.11
61357;BME280;47227;46.752;23.576;2023-05-09T07:29:20;97068.04;;;12.05;49.09
61357;BME280;47227;46.752;23.576;2023-05-09T07:32:28;97063.90;;;12.09;49.56
61357;BME280;47227;46.752;23.576;2023-05-09T07:35:11;97060.46;;;12.11;49.15
61357;BME280;47227;46.752;23.576;2023-05-09T07:41:20;97056.04;;;12.01;48.64
61357;BME280;47227;46.752;23.576;2023-05-09T07:44:04;97056.30;;;12.05;48.96
61357;BME280;47227;46.752;23.576;2023-05-09T07:46:42;97049.64;;;11.97;48.47
61357;BME280;47227;46.752;23.576;2023-05-09T07:57:32;97045.23;;;11.36;49.48
61357;BME280;47227;46.752;23.576;2023-05-09T08:00:31;97042.98;;;11.25;50.04
61357;BME280;47227;46.752;23.576;2023-05-09T08:03:37;97044.45;;;11.14;50.13
61357;BME280;47227;46.752;23.576;2023-05-09T08:07:03;97047.27;;;11.14;50.75
61357;BME280;47227;46.752;23.576;2023-05-09T08:09:38;97048.68;;;11.19;50.34
61357;BME280;47227;46.752;23.576;2023-05-09T08:12:34;97053.46;;;11.16;50.08
61357;BME280;47227;46.752;23.576;2023-05-09T08:15:30;97056.44;;;11.21;50.70
61357;BME280;47227;46.752;23.576;2023-05-09T08:18:08;97057.52;;;11.24;50.49
61357;BME280;47227;46.752;23.576;2023-05-09T08:55:54;97041.85;;;12.41;49.77
61357;BME280;47227;46.752;23.576;2023-05-09T09:20:51;97030.00;;;13.65;47.79
61357;BME280;47227;46.752;23.576;2023-05-09T09:23:54;97029.64;;;13.76;47.13
61357;BME280;47227;46.752;23.576;2023-05-09T09:27:24;97027.15;;;13.92;47.45
61357;BME280;47227;46.752;23.576;2023-05-09T09:30:06;97032.19;;;14.06;46.85
61357;BME280;47227;46.752;23.576;2023-05-09T09:32:43;97028.23;;;14.12;45.52
61357;BME280;47227;46.752;23.576;2023-05-09T09:36:32;97034.27;;;14.22;45.37
61357;BME280;47227;46.752;23.576;2023-05-09T09:39:24;97036.13;;;14.35;44.52
61357;BME280;47227;46.752;23.576;2023-05-09T09:42:08;97035.48;;;14.40;44.45
61357;BME280;47227;46.752;23.576;2023-05-09T09:44:41;97031.50;;;14.50;44.55
61357;BME280;47227;46.752;23.576;2023-05-09T09:47:29;97026.63;;;14.70;45.09
61357;BME280;47227;46.752;23.576;2023-05-09T09:50:08;97032.59;;;14.96;43.13
61357;BME280;47227;46.752;23.576;2023-05-09T09:52:51;97030.52;;;15.02;41.96
61357;BME280;47227;46.752;23.576;2023-05-09T09:56:38;97021.02;;;15.04;43.62
61357;BME280;47227;46.752;23.576;2023-05-09T09:59:33;97017.86;;;15.10;42.49
61357;BME280;47227;46.752;23.576;2023-05-09T10:02:22;97017.43;;;15.20;41.98
61357;BME280;47227;46.752;23.576;2023-05-09T10:05:08;97014.98;;;15.44;41.75
61357;BME280;47227;46.752;23.576;2023-05-09T10:07:52;97014.29;;;15.75;41.94
61357;BME280;47227;46.752;23.576;2023-05-09T10:11:22;97010.45;;;16.00;41.06
61357;BME280;47227;46.752;23.576;2023-05-09T10:14:00;97009.61;;;16.16;40.93
61357;BME280;47227;46.752;23.576;2023-05-09T10:16:54;97005.17;;;16.35;39.68
61357;BME280;47227;46.752;23.576;2023-05-09T10:19:31;97005.75;;;16.47;40.35
61357;BME280;47227;46.752;23.576;2023-05-09T10:22:09;97007.26;;;16.72;40.60
61357;BME280;47227;46.752;23.576;2023-05-09T10:24:46;97004.66;;;17.00;40.24
61357;BME280;47227;46.752;23.576;2023-05-09T10:27:30;96999.64;;;17.23;40.23
61357;BME280;47227;46.752;23.576;2023-05-09T10:30:34;97002.23;;;17.46;38.77
61357;BME280;47227;46.752;23.576;2023-05-09T10:33:10;97001.20;;;17.70;37.68
61357;BME280;47227;46.752;23.576;2023-05-09T10:35:51;96997.93;;;17.96;36.85
61357;BME280;47227;46.752;23.576;2023-05-09T10:38:54;97000.71;;;18.07;37.42
61357;BME280;47227;46.752;23.576;2023-05-09T10:41:50;97001.27;;;18.24;37.00
61357;BME280;47227;46.752;23.576;2023-05-09T10:55:55;96993.40;;;18.19;35.81
61357;BME280;47227;46.752;23.576;2023-05-09T10:58:56;96993.55;;;18.27;35.13
61357;BME280;47227;46.752;23.576;2023-05-09T11:01:32;96994.03;;;18.26;35.58
61357;BME280;47227;46.752;23.576;2023-05-09T11:04:31;96991.74;;;18.44;34.17
61357;BME280;47227;46.752;23.576;2023-05-09T11:08:25;96991.23;;;18.49;33.93
61357;BME280;47227;46.752;23.576;2023-05-09T11:11:24;96991.50;;;18.24;34.26
61357;BME280;47227;46.752;23.576;2023-05-09T11:19:04;96984.55;;;18.10;35.00
61357;BME280;47227;46.752;23.576;2023-05-09T11:37:18;96954.71;;;21.10;29.89
61357;BME280;47227;46.752;23.576;2023-05-09T11:55:39;96953.88;;;23.36;27.09
61357;BME280;47227;46.752;23.576;2023-05-09T12:58:22;96900.23;;;18.66;31.91
61357;BME280;47227;46.752;23.576;2023-05-09T13:58:24;96866.23;;;21.85;27.06
61357;BME280;47227;46.752;23.576;2023-05-09T14:10:32;96858.33;;;21.21;27.47
61357;BME280;47227;46.752;23.576;2023-05-09T16:35:41;96813.11;;;17.29;34.56
61357;BME280;47227;46.752;23.576;2023-05-09T16:38:29;96817.24;;;17.29;34.86
61357;BME280;47227;46.752;23.576;2023-05-09T16:40:57;96814.09;;;17.13;35.19
61357;BME280;47227;46.752;23.576;2023-05-09T16:43:25;96819.12;;;16.85;35.76
61357;BME280;47227;46.752;23.576;2023-05-09T16:45:53;96820.93;;;16.58;36.63
61357;BME280;47227;46.752;23.576;2023-05-09T16:48:22;96819.60;;;16.34;37.08
61357;BME280;47227;46.752;23.576;2023-05-09T16:50:50;96820.58;;;16.05;37.29
61357;BME280;47227;46.752;23.576;2023-05-09T16:53:20;96821.95;;;15.78;37.85
61357;BME280;47227;46.752;23.576;2023-05-09T16:55:49;96822.89;;;15.60;38.13
61357;BME280;47227;46.752;23.576;2023-05-09T16:58:18;96821.30;;;15.43;38.98
61357;BME280;47227;46.752;23.576;2023-05-09T17:00:46;96829.75;;;15.26;38.91
61357;BME280;47227;46.752;23.576;2023-05-09T17:03:14;96826.95;;;15.09;39.62
61357;BME280;47227;46.752;23.576;2023-05-09T17:05:42;96825.90;;;14.97;39.59
61357;BME280;47227;46.752;23.576;2023-05-09T17:08:10;96823.17;;;14.79;40.08
61357;BME280;47227;46.752;23.576;2023-05-09T17:10:39;96823.65;;;14.59;39.95
61357;BME280;47227;46.752;23.576;2023-05-09T17:13:08;96823.02;;;14.41;40.70
61357;BME280;47227;46.752;23.576;2023-05-09T17:15:37;96823.20;;;14.23;41.19
61357;BME280;47227;46.752;23.576;2023-05-09T17:18:05;96823.18;;;14.06;41.51
61357;BME280;47227;46.752;23.576;2023-05-09T17:20:33;96825.45;;;13.91;41.90
61357;BME280;47227;46.752;23.576;2023-05-09T17:23:02;96825.98;;;13.75;41.90
61357;BME280;47227;46.752;23.576;2023-05-09T17:25:30;96826.55;;;13.58;42.58
61357;BME280;47227;46.752;23.576;2023-05-09T17:27:58;96829.51;;;13.45;42.49
61357;BME280;47227;46.752;23.576;2023-05-09T17:30:26;96824.90;;;13.35;42.68
61357;BME280;47227;46.752;23.576;2023-05-09T17:32:54;96823.79;;;13.34;42.89
61357;BME280;47227;46.752;23.576;2023-05-09T17:35:22;96824.66;;;13.39;42.59
61357;BME280;47227;46.752;23.576;2023-05-09T17:37:52;96825.83;;;13.39;42.93
61357;BME280;47227;46.752;23.576;2023-05-09T17:40:20;96827.95;;;13.34;42.66
61357;BME280;47227;46.752;23.576;2023-05-09T17:42:48;96826.64;;;13.16;42.58
61357;BME280;47227;46.752;23.576;2023-05-09T17:45:17;96822.72;;;12.96;42.86
61357;BME280;47227;46.752;23.576;2023-05-09T17:47:45;96822.46;;;12.76;43.50
61357;BME280;47227;46.752;23.576;2023-05-09T17:50:13;96820.05;;;12.57;43.45
61357;BME280;47227;46.752;23.576;2023-05-09T17:52:44;96822.79;;;12.39;43.69
61357;BME280;47227;46.752;23.576;2023-05-09T17:55:12;96827.12;;;12.24;43.94
61357;BME280;47227;46.752;23.576;2023-05-09T17:57:40;96827.32;;;12.11;44.43
61357;BME280;47227;46.752;23.576;2023-05-09T18:00:10;96828.11;;;11.99;44.61
61357;BME280;47227;46.752;23.576;2023-05-09T18:02:40;96825.34;;;11.90;44.93
61357;BME280;47227;46.752;23.576;2023-05-09T18:05:09;96827.42;;;11.82;45.10
61357;BME280;47227;46.752;23.576;2023-05-09T18:07:38;96830.11;;;11.75;45.13
61357;BME280;47227;46.752;23.576;2023-05-09T18:10:07;96830.96;;;11.68;45.37
61357;BME280;47227;46.752;23.576;2023-05-09T18:12:35;96832.75;;;11.61;45.95
61357;BME280;47227;46.752;23.576;2023-05-09T18:15:04;96831.76;;;11.56;45.92
61357;BME280;47227;46.752;23.576;2023-05-09T18:17:33;96833.77;;;11.50;46.46
61357;BME280;47227;46.752;23.576;2023-05-09T18:20:02;96835.73;;;11.44;46.29
61357;BME280;47227;46.752;23.576;2023-05-09T18:22:31;96838.69;;;11.38;46.31
61357;BME280;47227;46.752;23.576;2023-05-09T18:25:00;96835.53;;;11.29;47.05
61357;BME280;47227;46.752;23.576;2023-05-09T18:27:28;96840.03;;;11.21;48.11
61357;BME280;47227;46.752;23.576;2023-05-09T18:29:56;96840.48;;;11.14;47.47
61357;BME280;47227;46.752;23.576;2023-05-09T18:32:24;96838.34;;;11.06;47.76
61357;BME280;47227;46.752;23.576;2023-05-09T18:34:52;96840.70;;;10.99;47.84
61357;BME280;47227;46.752;23.576;2023-05-09T18:37:20;96840.48;;;10.93;47.49
61357;BME280;47227;46.752;23.576;2023-05-09T18:39:49;96841.38;;;10.87;47.56
61357;BME280;47227;46.752;23.576;2023-05-09T18:42:27;96845.94;;;10.81;47.75
61357;BME280;47227;46.752;23.576;2023-05-09T18:44:55;96847.86;;;10.74;48.28
61357;BME280;47227;46.752;23.576;2023-05-09T18:47:23;96848.59;;;10.69;47.91
61357;BME280;47227;46.752;23.576;2023-05-09T18:49:51;96847.33;;;10.63;47.98
61357;BME280;47227;46.752;23.576;2023-05-09T18:52:21;96848.33;;;10.58;47.90
61357;BME280;47227;46.752;23.576;2023-05-09T18:54:49;96848.66;;;10.53;48.13
61357;BME280;47227;46.752;23.576;2023-05-09T18:57:17;96855.83;;;10.47;48.32
61357;BME280;47227;46.752;23.576;2023-05-09T18:59:46;96856.09;;;10.42;48.83
61357;BME280;47227;46.752;23.576;2023-05-09T19:02:14;96857.92;;;10.37;48.86
61357;BME280;47227;46.752;23.576;2023-05-09T19:04:42;96859.29;;;10.31;49.07
61357;BME280;47227;46.752;23.576;2023-05-09T19:07:12;96860.23;;;10.27;49.18
61357;BME280;47227;46.752;23.576;2023-05-09T19:09:41;96860.17;;;10.23;49.19
61357;BME280;47227;46.752;23.576;2023-05-09T19:12:09;96860.42;;;10.20;49.45
61357;BME280;47227;46.752;23.576;2023-05-09T19:14:37;96861.82;;;10.19;49.18
61357;BME280;47227;46.752;23.576;2023-05-09T19:17:05;96866.20;;;10.18;49.60
61357;BME280;47227;46.752;23.576;2023-05-09T19:19:34;96866.20;;;10.18;49.97
61357;BME280;47227;46.752;23.576;2023-05-09T19:22:02;96867.25;;;10.18;49.98
61357;BME280;47227;46.752;23.576;2023-05-09T19:24:31;96868.16;;;10.19;50.40
61357;BME280;47227;46.752;23.576;2023-05-09T19:26:59;96869.34;;;10.20;50.15
61357;BME280;47227;46.752;23.576;2023-05-09T19:29:27;96873.23;;;10.21;50.46
61357;BME280;47227;46.752;23.576;2023-05-09T19:31:55;96874.88;;;10.22;50.25
61357;BME280;47227;46.752;23.576;2023-05-09T19:34:23;96873.59;;;10.23;50.04
61357;BME280;47227;46.752;23.576;2023-05-09T19:36:51;96869.77;;;10.23;51.01
61357;BME280;47227;46.752;23.576;2023-05-09T19:39:19;96871.98;;;10.23;50.68
61357;BME280;47227;46.752;23.576;2023-05-09T19:41:47;96871.14;;;10.23;50.46
61357;BME280;47227;46.752;23.576;2023-05-09T19:44:15;96872.17;;;10.22;50.82
61357;BME280;47227;46.752;23.576;2023-05-09T19:46:43;96870.70;;;10.23;50.62
61357;BME280;47227;46.752;23.576;2023-05-09T19:49:11;96872.17;;;10.22;50.42
61357;BME280;47227;46.752;23.576;2023-05-09T19:51:44;96869.75;;;10.22;50.52
61357;BME280;47227;46.752;23.576;2023-05-09T19:54:12;96878.67;;;10.22;50.56
61357;BME280;47227;46.752;23.576;2023-05-09T19:56:40;96876.40;;;10.22;50.55
61357;BME280;47227;46.752;23.576;2023-05-09T19:59:08;96874.88;;;10.22;50.22
